createdAt,value
2019-03-01T00:04:18.956Z,59.20
2019-03-01T00:10:13.250Z,59.20
2019-03-01T00:16:07.985Z,59.30
2019-03-01T00:22:04.534Z,59.20
2019-03-01T00:28:01.116Z,59.00
2019-03-01T00:33:57.603Z,59.20
2019-03-01T00:39:43.159Z,59.20
2019-03-01T00:45:13.558Z,59.20
2019-03-01T00:50:43.124Z,59.30
2019-03-01T00:56:12.704Z,59.60
2019-03-01T01:01:42.122Z,60.00
2019-03-01T01:07:11.669Z,59.10
2019-03-01T01:12:41.249Z,59.00
2019-03-01T01:18:10.752Z,58.90
2019-03-01T01:23:41.167Z,58.80
2019-03-01T01:29:10.754Z,58.90
2019-03-01T01:34:42.847Z,59.20
2019-03-01T01:40:12.503Z,59.50
2019-03-01T01:45:42.250Z,59.90
2019-03-01T01:51:12.178Z,60.20
2019-03-01T01:56:42.607Z,60.50
2019-03-01T02:02:14.973Z,60.40
2019-03-01T02:07:44.443Z,60.60
2019-03-01T02:13:14.029Z,60.80
2019-03-01T02:18:57.743Z,61.00
2019-03-01T02:24:23.551Z,61.10
2019-03-01T02:29:53.116Z,61.10
2019-03-01T02:35:22.488Z,61.20
2019-03-01T02:40:51.800Z,61.00
2019-03-01T02:46:21.137Z,61.00
2019-03-01T02:51:50.541Z,61.00
2019-03-01T02:57:19.888Z,60.90
2019-03-01T03:03:34.849Z,61.10
2019-03-01T03:08:35.833Z,61.00
2019-03-01T03:14:05.334Z,60.90
2019-03-01T03:19:34.620Z,60.90
2019-03-01T03:25:06.242Z,60.90
2019-03-01T03:30:35.716Z,60.60
2019-03-01T03:36:05.107Z,60.50
2019-03-01T03:41:34.945Z,60.90
2019-03-01T03:47:04.281Z,61.60
2019-03-01T03:52:33.751Z,61.60
2019-03-01T03:58:03.121Z,61.80
2019-03-01T04:03:34.548Z,63.10
2019-03-01T04:09:05.096Z,63.70
2019-03-01T04:14:34.420Z,64.30
2019-03-01T04:20:08.924Z,64.60
2019-03-01T04:25:38.343Z,65.20
2019-03-01T04:31:20.286Z,65.80
2019-03-01T04:36:49.542Z,66.00
2019-03-01T04:42:18.810Z,66.90
2019-03-01T04:47:48.079Z,67.30
2019-03-01T04:53:17.692Z,67.50
2019-03-01T04:58:46.932Z,67.70
2019-03-01T05:04:18.128Z,67.80
2019-03-01T05:09:48.366Z,67.90
2019-03-01T05:15:24.026Z,68.10
2019-03-01T05:20:53.297Z,68.00
2019-03-01T05:26:29.339Z,68.00
2019-03-01T05:31:58.606Z,67.90
2019-03-01T05:37:27.870Z,67.90
2019-03-01T05:42:57.143Z,68.00
2019-03-01T05:48:26.416Z,68.10
2019-03-01T05:53:55.676Z,68.40
2019-03-01T05:59:25.011Z,69.80
2019-03-01T06:04:59.445Z,70.90
2019-03-01T06:10:42.462Z,71.80
2019-03-01T06:16:40.463Z,72.60
2019-03-01T06:22:28.954Z,72.70
2019-03-01T06:28:35.216Z,72.90
2019-03-01T06:34:20.648Z,73.90
2019-03-01T06:40:15.705Z,74.00
2019-03-01T06:45:55.914Z,74.80
2019-03-01T06:51:29.201Z,74.80
2019-03-01T06:56:57.818Z,75.20
2019-03-01T07:02:34.183Z,75.20
2019-03-01T07:08:03.448Z,75.30
2019-03-01T07:13:32.731Z,75.10
2019-03-01T07:19:02.076Z,74.80
2019-03-01T07:24:31.339Z,75.00
2019-03-01T07:30:07.194Z,74.90
2019-03-01T07:35:36.469Z,75.10
2019-03-01T07:41:05.896Z,75.50
2019-03-01T07:46:35.177Z,75.60
2019-03-01T07:52:04.934Z,75.90
2019-03-01T07:57:35.023Z,76.80
2019-03-01T08:03:04.305Z,77.10
2019-03-01T08:08:34.937Z,77.80
2019-03-01T08:14:04.568Z,78.10
2019-03-01T08:19:33.851Z,78.90
2019-03-01T08:25:03.114Z,79.60
2019-03-01T08:30:32.395Z,80.30
2019-03-01T08:36:02.464Z,80.40
2019-03-01T08:41:32.637Z,80.80
2019-03-01T08:47:01.914Z,80.80
2019-03-01T08:52:31.179Z,80.90
2019-03-01T08:58:04.622Z,81.20
2019-03-01T09:03:36.303Z,81.60
2019-03-01T09:09:08.625Z,81.60
2019-03-01T09:14:40.012Z,81.20
2019-03-01T09:20:13.056Z,81.90
2019-03-01T09:25:49.857Z,81.80
2019-03-01T09:31:19.219Z,82.60
2019-03-01T09:36:51.515Z,82.90
2019-03-01T09:42:19.707Z,83.20
2019-03-01T09:47:49.000Z,83.20
2019-03-01T09:53:18.266Z,83.20
2019-03-01T09:58:47.540Z,83.00
2019-03-01T10:04:16.822Z,83.10
2019-03-01T10:09:46.562Z,83.30
2019-03-01T10:15:15.865Z,83.40
2019-03-01T10:20:45.139Z,83.40
2019-03-01T10:26:14.405Z,83.50
2019-03-01T10:31:46.613Z,83.50
2019-03-01T10:37:15.886Z,83.60
2019-03-01T10:42:45.174Z,83.40
2019-03-01T10:48:14.446Z,83.60
2019-03-01T10:53:43.728Z,83.60
2019-03-01T10:59:13.037Z,83.40
2019-03-01T11:04:42.375Z,83.20
2019-03-01T11:10:16.231Z,83.30
2019-03-01T11:15:47.744Z,83.20
2019-03-01T11:21:17.134Z,82.80
2019-03-01T11:26:46.417Z,82.40
2019-03-01T11:32:15.812Z,82.40
2019-03-01T11:37:45.149Z,82.10
2019-03-01T11:43:14.441Z,82.20
2019-03-01T11:48:43.833Z,82.30
2019-03-01T11:54:13.111Z,81.80
2019-03-01T11:59:42.374Z,81.90
2019-03-01T12:05:13.469Z,82.00
2019-03-01T12:10:42.889Z,81.50
2019-03-01T12:16:12.158Z,80.70
2019-03-01T12:21:41.422Z,80.00
2019-03-01T12:27:10.702Z,79.40
2019-03-01T12:32:40.033Z,78.80
2019-03-01T12:38:09.296Z,79.00
2019-03-01T12:43:38.575Z,78.90
2019-03-01T12:49:07.922Z,79.00
2019-03-01T12:54:37.204Z,79.00
2019-03-01T13:00:16.503Z,79.00
2019-03-01T13:05:45.769Z,78.70
2019-03-01T13:11:16.365Z,78.40
2019-03-01T13:16:46.054Z,78.40
2019-03-01T13:22:15.310Z,77.50
2019-03-01T13:27:44.594Z,77.50
2019-03-01T13:33:15.840Z,77.50
2019-03-01T13:38:45.114Z,77.50
2019-03-01T13:44:14.460Z,76.80
2019-03-01T13:49:43.795Z,76.20
2019-03-01T13:55:18.686Z,75.60
2019-03-01T14:00:48.818Z,75.50
2019-03-01T14:06:19.468Z,75.10
2019-03-01T14:11:48.957Z,75.00
2019-03-01T14:17:21.092Z,75.00
2019-03-01T14:22:49.436Z,75.20
2019-03-01T14:28:18.638Z,75.70
2019-03-01T14:33:48.918Z,75.60
2019-03-01T14:39:18.357Z,75.70
2019-03-01T14:44:47.623Z,75.90
2019-03-01T14:50:20.212Z,75.90
2019-03-01T14:56:12.127Z,75.90
2019-03-01T15:01:52.914Z,75.90
2019-03-01T15:07:22.961Z,76.10
2019-03-01T15:12:53.895Z,75.90
2019-03-01T15:18:25.031Z,76.10
2019-03-01T15:23:56.254Z,76.30
2019-03-01T15:29:28.241Z,76.80
2019-03-01T15:35:02.594Z,77.10
2019-03-01T15:40:31.368Z,77.80
2019-03-01T15:45:59.557Z,78.20
2019-03-01T15:51:29.766Z,78.80
2019-03-01T15:56:59.052Z,79.30
2019-03-01T16:02:28.835Z,79.80
2019-03-01T16:07:58.113Z,80.10
2019-03-01T16:13:28.372Z,80.50
2019-03-01T16:18:57.630Z,80.60
2019-03-01T16:24:29.476Z,80.70
2019-03-01T16:29:58.725Z,80.90
2019-03-01T16:35:28.101Z,81.30
2019-03-01T16:40:58.358Z,81.70
2019-03-01T16:46:31.329Z,82.10
2019-03-01T16:51:59.781Z,83.10
2019-03-01T16:57:29.165Z,83.10
2019-03-01T17:03:16.554Z,84.20
2019-03-01T17:08:42.257Z,84.60
2019-03-01T17:14:11.531Z,83.80
2019-03-01T17:19:42.488Z,83.90
2019-03-01T17:25:19.512Z,83.80
2019-03-01T17:30:51.767Z,84.30
2019-03-01T17:36:21.199Z,84.40
2019-03-01T17:41:50.491Z,84.50
2019-03-01T17:47:19.775Z,84.80
2019-03-01T17:52:49.050Z,85.10
2019-03-01T17:58:18.320Z,85.40
2019-03-01T18:03:47.583Z,85.90
2019-03-01T18:09:17.019Z,85.20
2019-03-01T18:14:46.291Z,85.70
2019-03-01T18:20:15.640Z,85.60
2019-03-01T18:25:44.932Z,85.80
2019-03-01T18:31:14.190Z,86.20
2019-03-01T18:36:45.702Z,86.20
2019-03-01T18:42:14.515Z,86.30
2019-03-01T18:47:45.635Z,86.10
2019-03-01T18:53:14.971Z,86.20
2019-03-01T18:58:45.719Z,86.30
2019-03-01T19:04:29.120Z,86.60
2019-03-01T19:09:52.294Z,86.70
2019-03-01T19:15:22.131Z,87.70
2019-03-01T19:20:54.024Z,87.20
2019-03-01T19:26:23.308Z,87.50
2019-03-01T19:31:53.675Z,87.40
2019-03-01T19:37:22.861Z,87.20
2019-03-01T19:42:53.353Z,87.30
2019-03-01T19:48:22.593Z,87.40
2019-03-01T19:53:52.523Z,87.60
2019-03-01T19:59:22.399Z,87.80
2019-03-01T20:04:52.578Z,87.90
2019-03-01T20:10:24.773Z,87.80
2019-03-01T20:15:54.140Z,88.00
2019-03-01T20:21:23.467Z,87.90
2019-03-01T20:26:53.020Z,88.00
2019-03-01T20:32:22.445Z,88.00
2019-03-01T20:37:51.858Z,87.80
2019-03-01T20:43:21.188Z,87.60
2019-03-01T20:48:50.904Z,87.70
2019-03-01T20:54:25.565Z,87.90
2019-03-01T20:59:56.296Z,88.00
2019-03-01T21:05:30.593Z,88.30
2019-03-01T21:11:00.141Z,88.70
2019-03-01T21:16:30.463Z,88.90
2019-03-01T21:22:01.598Z,88.90
2019-03-01T21:27:30.930Z,90.10
2019-03-01T21:33:01.423Z,89.70
2019-03-01T21:38:30.758Z,89.50
2019-03-01T21:44:00.208Z,89.40
2019-03-01T21:49:29.726Z,89.10
2019-03-01T21:54:59.149Z,89.20
2019-03-01T22:00:31.383Z,89.40
2019-03-01T22:06:00.589Z,89.40
2019-03-01T22:11:30.012Z,89.50
2019-03-01T22:16:59.515Z,89.60
2019-03-01T22:22:28.919Z,89.80
2019-03-01T22:28:01.137Z,89.80
2019-03-01T22:33:29.648Z,90.00
2019-03-01T22:38:59.101Z,90.00
2019-03-01T22:44:29.495Z,90.10
2019-03-01T22:49:58.840Z,90.10
2019-03-01T22:55:33.544Z,90.20
2019-03-01T23:01:05.978Z,90.20
2019-03-01T23:06:40.777Z,90.20
2019-03-01T23:12:10.199Z,90.30
2019-03-01T23:17:40.041Z,90.30
2019-03-01T23:23:09.416Z,90.20
2019-03-01T23:28:40.754Z,90.20
2019-03-01T23:34:10.309Z,90.30
2019-03-01T23:39:42.261Z,90.20
2019-03-01T23:45:13.724Z,90.20
2019-03-01T23:50:43.612Z,90.10
2019-03-01T23:56:13.065Z,90.20
